Time;durP1;ratioP1;P1;durP2;ratioP2;P2;SDS_P1;SDS_P2;PMS_P1;PMS_P2;Temp;Humidity;BMP_temperature;BMP_pressure;BME280_temperature;BME280_humidity;BME280_pressure;Samples;Min_cycle;Max_cycle;Signal;HPM_P1;HPM_P2
2022/01/23 00:01:09;;;;;;;;;;;7.70;99.90;;;;;;5114583;28;19950;-77
2022/01/23 00:03:35;;;;;;;;;;;7.70;99.90;;;;;;5113658;28;19914;-77
2022/01/23 00:06:00;;;;;;;;;;;7.70;99.90;;;;;;5114503;28;19908;-77
2022/01/23 00:08:26;;;;;;;;;;;7.70;99.90;;;;;;5113673;28;19912;-77
2022/01/23 00:10:53;;;;;;;;;;;7.70;99.90;;;;;;5114263;28;19923;-79
2022/01/23 00:13:29;;;;;;;;;;;7.70;99.90;;;;;;5114260;28;19908;-78
2022/01/23 00:18:39;;;;;;;;;;;7.70;99.90;;;;;;5113287;28;19915;-78
2022/01/23 00:21:05;;;;;;;;;;;7.70;99.90;;;;;;5114188;28;19908;-78
2022/01/23 00:30:17;;;;;;;;;;;7.70;99.90;;;;;;5113301;28;19908;-78
2022/01/23 00:31:44;;;;;;;;;;;7.60;99.90;;;;;;5112998;28;20547;-77
2022/01/23 00:34:09;;;;;;;;;;;7.60;99.90;;;;;;5113889;28;19908;-76
2022/01/23 00:36:35;;;;;;;;;;;7.60;99.90;;;;;;5113108;28;19915;-77
2022/01/23 00:39:01;;;;;;;;;;;7.60;99.90;;;;;;5113567;28;19961;-77
2022/01/23 00:41:26;;;;;;;;;;;7.60;99.90;;;;;;5113296;28;20273;-75
2022/01/23 00:43:53;;;;;;;;;;;7.60;99.90;;;;;;5113915;28;20340;-77
2022/01/23 00:49:13;;;;;;;;;;;7.50;99.90;;;;;;5112798;28;19946;-77
2022/01/23 00:51:37;;;;;;;;;;;7.60;99.90;;;;;;5112377;28;19970;-77
2022/01/23 00:54:05;;;;;;;;;;;7.50;99.90;;;;;;5113565;28;19915;-77
2022/01/23 00:56:30;;;;;;;;;;;7.60;99.90;;;;;;5112592;28;20361;-77
2022/01/23 00:58:56;;;;;;;;;;;7.60;99.90;;;;;;5113405;28;19908;-78
2022/01/23 01:01:21;;;;;;;;;;;7.60;99.90;;;;;;5113559;28;19912;-78
2022/01/23 01:03:47;;;;;;;;;;;7.60;99.90;;;;;;5112489;28;19916;-78
2022/01/23 01:06:13;;;;;;;;;;;7.60;99.90;;;;;;5113289;28;20425;-77
2022/01/23 01:08:39;;;;;;;;;;;7.50;99.90;;;;;;5112281;28;19951;-78
2022/01/23 01:13:55;;;;;;;;;;;7.50;99.90;;;;;;5112251;28;19907;-77
2022/01/23 01:38:01;;;;;;;;;;;7.40;99.90;;;;;;5088961;28;19961;-79
2022/01/23 01:40:27;;;;;;;;;;;7.40;99.90;;;;;;5113046;28;19912;-76
2022/01/23 01:42:53;;;;;;;;;;;7.40;99.90;;;;;;5113372;28;19912;-79
2022/01/23 01:45:23;;;;;;;;;;;7.40;99.90;;;;;;5113140;28;19908;-79
2022/01/23 01:47:49;;;;;;;;;;;7.40;99.90;;;;;;5112390;28;19987;-77
2022/01/23 01:50:15;;;;;;;;;;;7.40;99.90;;;;;;5113421;28;19969;-78
2022/01/23 01:52:41;;;;;;;;;;;7.30;99.90;;;;;;5112181;28;19988;-78
2022/01/23 01:55:10;;;;;;;;;;;7.30;99.90;;;;;;5113169;28;19915;-78
2022/01/23 01:57:40;;;;;;;;;;;7.30;99.90;;;;;;5112674;28;20332;-79
2022/01/23 02:10:38;;;;;;;;;;;7.30;99.90;;;;;;5112062;28;20022;-78
2022/01/23 02:13:15;;;;;;;;;;;7.20;99.90;;;;;;5112290;28;19907;-78
2022/01/23 02:16:03;;;;;;;;;;;7.20;99.90;;;;;;5111972;28;19914;-78
2022/01/23 02:54:21;;;;;;;;;;;7.10;99.90;;;;;;5112440;28;20284;-78
2022/01/23 02:56:53;;;;;;;;;;;7.00;99.90;;;;;;5111913;28;19908;-79
2022/01/23 02:59:25;;;;;;;;;;;7.10;99.90;;;;;;5112543;28;19915;-77
2022/01/23 03:04:24;;;;;;;;;;;7.00;99.90;;;;;;5112657;28;19908;-79
2022/01/23 03:27:28;;;;;;;;;;;6.90;99.90;;;;;;5115655;28;19907;-78
2022/01/23 03:32:24;;;;;;;;;;;6.90;99.90;;;;;;5115966;28;19999;-79
2022/01/23 03:34:50;;;;;;;;;;;6.80;99.90;;;;;;5115307;28;19914;-79
2022/01/23 03:37:15;;;;;;;;;;;6.80;99.90;;;;;;5115916;28;20348;-79
2022/01/23 03:39:41;;;;;;;;;;;6.80;99.90;;;;;;5115250;28;19915;-78
2022/01/23 03:42:06;;;;;;;;;;;6.80;99.90;;;;;;5115714;28;20394;-79
2022/01/23 03:44:36;;;;;;;;;;;6.70;99.90;;;;;;5115468;28;19907;-79
2022/01/23 03:47:15;;;;;;;;;;;6.70;99.90;;;;;;5115191;28;20299;-78
2022/01/23 03:49:41;;;;;;;;;;;6.70;99.90;;;;;;5115587;28;19919;-79
2022/01/23 03:52:09;;;;;;;;;;;6.60;99.90;;;;;;5122378;28;19933;-78
2022/01/23 03:54:36;;;;;;;;;;;6.60;99.90;;;;;;5120139;28;19912;-76
2022/01/23 03:57:02;;;;;;;;;;;6.60;99.90;;;;;;5115085;28;19908;-78
2022/01/23 03:59:29;;;;;;;;;;;6.60;99.90;;;;;;5115737;28;20348;-78
2022/01/23 04:01:54;;;;;;;;;;;6.70;99.90;;;;;;5114750;28;19912;-79
2022/01/23 04:04:40;;;;;;;;;;;6.70;99.90;;;;;;5115301;28;20280;-79
2022/01/23 04:07:06;;;;;;;;;;;6.70;99.90;;;;;;5115205;28;19908;-78
2022/01/23 04:09:32;;;;;;;;;;;6.70;99.90;;;;;;5115328;28;19976;-78
2022/01/23 04:11:59;;;;;;;;;;;6.70;99.90;;;;;;5114208;28;20378;-79
2022/01/23 04:14:26;;;;;;;;;;;6.70;99.90;;;;;;5115012;28;19954;-79
2022/01/23 05:00:20;;;;;;;;;;;6.60;99.90;;;;;;5114034;28;20421;-78
2022/01/23 05:05:34;;;;;;;;;;;6.60;99.90;;;;;;5113735;28;19980;-78
2022/01/23 05:08:03;;;;;;;;;;;6.60;99.90;;;;;;5112971;28;19943;-79
2022/01/23 05:10:29;;;;;;;;;;;6.60;99.90;;;;;;5113816;28;20020;-77
2022/01/23 05:12:55;;;;;;;;;;;6.70;99.90;;;;;;5113177;28;20356;-78
2022/01/23 05:15:21;;;;;;;;;;;6.70;99.90;;;;;;5113767;28;19908;-78
2022/01/23 05:17:47;;;;;;;;;;;6.60;99.90;;;;;;5113032;28;19908;-78
2022/01/23 05:20:15;;;;;;;;;;;6.60;99.90;;;;;;5114055;28;20382;-79
2022/01/23 05:22:43;;;;;;;;;;;6.60;99.90;;;;;;5113535;28;19958;-76
2022/01/23 05:25:30;;;;;;;;;;;6.60;99.90;;;;;;5095961;28;19952;-78
2022/01/23 05:27:56;;;;;;;;;;;6.60;99.90;;;;;;5112929;28;20360;-78
2022/01/23 05:30:22;;;;;;;;;;;6.60;99.90;;;;;;5113631;28;19919;-78
2022/01/23 05:32:48;;;;;;;;;;;6.60;99.90;;;;;;5112842;28;20340;-78
2022/01/23 05:35:17;;;;;;;;;;;6.60;99.90;;;;;;5113885;28;20011;-78
2022/01/23 05:37:42;;;;;;;;;;;6.60;99.90;;;;;;5113242;28;19908;-76
2022/01/23 05:40:11;;;;;;;;;;;6.60;99.90;;;;;;5113382;28;20018;-78
2022/01/23 05:42:36;;;;;;;;;;;6.60;99.90;;;;;;5113288;28;19908;-78
2022/01/23 05:45:02;;;;;;;;;;;6.60;99.90;;;;;;5112562;28;19967;-78
2022/01/23 05:47:28;;;;;;;;;;;6.60;99.90;;;;;;5112997;28;19929;-78
2022/01/23 05:49:53;;;;;;;;;;;6.60;99.90;;;;;;5111701;28;19924;-78
2022/01/23 05:52:19;;;;;;;;;;;6.60;99.90;;;;;;5112941;28;19908;-78
2022/01/23 05:54:45;;;;;;;;;;;6.60;99.90;;;;;;5112710;28;19946;-76
2022/01/23 05:57:10;;;;;;;;;;;6.60;99.90;;;;;;5094558;28;19915;-78
2022/01/23 05:59:36;;;;;;;;;;;6.60;99.90;;;;;;5113331;28;19915;-78
2022/01/23 06:02:01;;;;;;;;;;;6.60;99.90;;;;;;5112361;28;19908;-78
2022/01/23 06:04:27;;;;;;;;;;;6.60;99.90;;;;;;5112804;28;20343;-78
2022/01/23 06:06:57;;;;;;;;;;;6.60;99.90;;;;;;5112100;28;19962;-79
2022/01/23 06:09:24;;;;;;;;;;;6.60;99.90;;;;;;5112978;28;19908;-77
2022/01/23 06:11:50;;;;;;;;;;;6.60;99.90;;;;;;5112011;28;19931;-77
2022/01/23 06:14:17;;;;;;;;;;;6.50;99.90;;;;;;5113075;28;19908;-78
2022/01/23 06:16:42;;;;;;;;;;;6.50;99.90;;;;;;5112681;28;20364;-79
2022/01/23 06:19:08;;;;;;;;;;;6.50;99.90;;;;;;5112048;28;19915;-78
2022/01/23 06:21:34;;;;;;;;;;;6.50;99.90;;;;;;5112956;28;19908;-78
2022/01/23 06:24:06;;;;;;;;;;;6.50;99.90;;;;;;5093882;28;19908;-78
2022/01/23 06:26:35;;;;;;;;;;;6.50;99.90;;;;;;5112909;28;19998;-78
2022/01/23 06:29:02;;;;;;;;;;;6.60;99.90;;;;;;5111983;28;19908;-78
2022/01/23 06:31:28;;;;;;;;;;;6.60;99.90;;;;;;5112746;28;19920;-79
2022/01/23 06:33:53;;;;;;;;;;;6.60;99.90;;;;;;5112403;28;20252;-77
2022/01/23 06:36:19;;;;;;;;;;;6.50;99.90;;;;;;5112798;28;19912;-78
2022/01/23 06:38:45;;;;;;;;;;;6.60;99.90;;;;;;5112482;28;19912;-77
2022/01/23 06:41:10;;;;;;;;;;;6.60;99.90;;;;;;5093860;28;19908;-78
2022/01/23 06:43:36;;;;;;;;;;;6.60;99.90;;;;;;5112725;28;19908;-78
2022/01/23 06:46:01;;;;;;;;;;;6.60;99.90;;;;;;5111864;28;19908;-78
2022/01/23 06:48:27;;;;;;;;;;;6.60;99.90;;;;;;5112635;28;19947;-78
2022/01/23 06:50:52;;;;;;;;;;;6.60;99.90;;;;;;5111966;28;19915;-78
2022/01/23 06:53:18;;;;;;;;;;;6.60;99.90;;;;;;5112425;28;20357;-78
2022/01/23 06:55:44;;;;;;;;;;;6.60;99.90;;;;;;5112347;28;19950;-78
2022/01/23 06:58:09;;;;;;;;;;;6.60;99.90;;;;;;5111529;28;20654;-77
2022/01/23 07:00:35;;;;;;;;;;;6.60;99.90;;;;;;5115339;28;19907;-78
2022/01/23 07:03:01;;;;;;;;;;;6.60;99.90;;;;;;5115780;28;19908;-77
2022/01/23 07:05:27;;;;;;;;;;;6.50;99.90;;;;;;5116238;28;19914;-78
2022/01/23 07:07:52;;;;;;;;;;;6.50;99.90;;;;;;5115657;28;19908;-78
2022/01/23 07:10:20;;;;;;;;;;;6.60;99.90;;;;;;5116279;28;19915;-78
2022/01/23 07:12:45;;;;;;;;;;;6.60;99.90;;;;;;5116027;28;19908;-78
2022/01/23 07:15:11;;;;;;;;;;;6.60;99.90;;;;;;5115763;28;19916;-79
2022/01/23 07:17:40;;;;;;;;;;;6.60;99.90;;;;;;5116203;28;20363;-79
2022/01/23 07:20:06;;;;;;;;;;;6.60;99.90;;;;;;5115232;28;19908;-78
2022/01/23 07:22:31;;;;;;;;;;;6.60;99.90;;;;;;5115750;28;20257;-79
2022/01/23 07:25:01;;;;;;;;;;;6.60;99.90;;;;;;5115204;28;19911;-79
2022/01/23 07:27:29;;;;;;;;;;;6.60;99.90;;;;;;5116027;28;19907;-79
2022/01/23 07:29:54;;;;;;;;;;;6.60;99.90;;;;;;5114848;28;19908;-79
2022/01/23 07:32:20;;;;;;;;;;;6.60;99.90;;;;;;5115843;28;19990;-79
2022/01/23 07:34:46;;;;;;;;;;;6.60;99.90;;;;;;5115714;28;19908;-79
2022/01/23 07:37:12;;;;;;;;;;;6.70;99.90;;;;;;5115404;28;19907;-79
2022/01/23 07:39:39;;;;;;;;;;;6.60;99.90;;;;;;5115914;28;20029;-79
2022/01/23 07:42:05;;;;;;;;;;;6.60;99.90;;;;;;5114593;28;20357;-79
2022/01/23 07:44:30;;;;;;;;;;;6.60;99.90;;;;;;5115488;28;19914;-79
2022/01/23 07:46:56;;;;;;;;;;;6.70;99.90;;;;;;5115125;28;20303;-78
2022/01/23 07:49:21;;;;;;;;;;;6.60;99.90;;;;;;5115641;28;19920;-78
2022/01/23 07:51:47;;;;;;;;;;;6.60;99.90;;;;;;5115271;28;19923;-79
2022/01/23 07:54:13;;;;;;;;;;;6.70;99.90;;;;;;5096590;28;19911;-79
2022/01/23 07:56:42;;;;;;;;;;;6.60;99.90;;;;;;5133579;28;19908;-80
2022/01/23 07:59:08;;;;;;;;;;;6.70;99.90;;;;;;5118580;28;20285;-79
2022/01/23 08:01:36;;;;;;;;;;;6.70;99.90;;;;;;5115111;28;19942;-79
2022/01/23 08:04:01;;;;;;;;;;;6.70;99.90;;;;;;5114269;28;20280;-79
2022/01/23 08:06:32;;;;;;;;;;;6.60;99.90;;;;;;5115154;28;19912;-78
2022/01/23 08:08:57;;;;;;;;;;;6.60;99.90;;;;;;5113618;28;20391;-80
2022/01/23 08:11:23;;;;;;;;;;;6.60;99.90;;;;;;5112925;28;19924;-79
2022/01/23 08:13:49;;;;;;;;;;;6.60;99.90;;;;;;5114422;28;20429;-80
2022/01/23 08:16:14;;;;;;;;;;;6.60;99.90;;;;;;5114285;28;20646;-78
2022/01/23 08:18:41;;;;;;;;;;;6.60;99.90;;;;;;5114992;28;19959;-79
2022/01/23 08:21:07;;;;;;;;;;;6.60;99.90;;;;;;5115758;28;19908;-79
2022/01/23 08:23:33;;;;;;;;;;;6.60;99.90;;;;;;5116046;28;19911;-79
2022/01/23 08:25:59;;;;;;;;;;;6.60;99.90;;;;;;5113867;28;20245;-79
2022/01/23 08:28:25;;;;;;;;;;;6.70;99.90;;;;;;5114502;28;19912;-80
2022/01/23 08:30:50;;;;;;;;;;;6.60;99.90;;;;;;5113789;28;20011;-79
2022/01/23 08:33:16;;;;;;;;;;;6.60;99.90;;;;;;5113510;28;20388;-79
2022/01/23 08:35:45;;;;;;;;;;;6.60;99.90;;;;;;5113876;28;19953;-78
2022/01/23 08:38:13;;;;;;;;;;;6.70;99.90;;;;;;5113362;28;19912;-78
2022/01/23 08:43:10;;;;;;;;;;;6.70;99.90;;;;;;5113843;28;19908;-79
2022/01/23 08:45:36;;;;;;;;;;;6.70;99.90;;;;;;5114497;28;19933;-79
2022/01/23 08:48:02;;;;;;;;;;;6.70;99.90;;;;;;5115637;27;19960;-80
2022/01/23 08:50:28;;;;;;;;;;;6.70;99.90;;;;;;5134743;27;20018;-79
2022/01/23 08:52:53;;;;;;;;;;;6.70;99.90;;;;;;5134623;27;19908;-77
2022/01/23 08:55:20;;;;;;;;;;;6.70;99.90;;;;;;5134396;27;19907;-79
2022/01/23 08:57:47;;;;;;;;;;;6.70;99.90;;;;;;5134792;27;19908;-79
2022/01/23 09:00:14;;;;;;;;;;;6.80;99.90;;;;;;5135278;27;19907;-79
2022/01/23 09:02:39;;;;;;;;;;;6.80;99.90;;;;;;5134261;27;19951;-80
2022/01/23 09:05:05;;;;;;;;;;;6.80;99.90;;;;;;5133884;27;19914;-78
2022/01/23 09:07:31;;;;;;;;;;;6.80;99.90;;;;;;5133250;27;19912;-80
2022/01/23 09:10:01;;;;;;;;;;;6.80;99.90;;;;;;5133836;27;19912;-76
2022/01/23 09:12:56;;;;;;;;;;;6.80;99.90;;;;;;5134378;27;19913;-79
2022/01/23 09:15:21;;;;;;;;;;;6.90;99.90;;;;;;5132812;27;19919;-79
2022/01/23 09:17:47;;;;;;;;;;;6.90;99.90;;;;;;5133481;27;20400;-78
2022/01/23 09:20:13;;;;;;;;;;;6.90;99.90;;;;;;5133387;27;19907;-79
2022/01/23 09:22:39;;;;;;;;;;;6.90;99.90;;;;;;5134863;27;20340;-79
2022/01/23 09:25:05;;;;;;;;;;;6.90;99.90;;;;;;5133381;27;19907;-79
2022/01/23 09:27:31;;;;;;;;;;;7.00;99.90;;;;;;5134176;27;19960;-78
2022/01/23 09:30:05;;;;;;;;;;;7.00;99.90;;;;;;5133721;27;19907;-76
2022/01/23 09:32:31;;;;;;;;;;;7.00;99.90;;;;;;5134485;27;19916;-79
2022/01/23 09:34:57;;;;;;;;;;;7.00;99.90;;;;;;5133107;27;19912;-76
2022/01/23 09:37:22;;;;;;;;;;;7.00;99.90;;;;;;5133147;27;20268;-79
2022/01/23 09:39:52;;;;;;;;;;;7.00;99.90;;;;;;5133977;27;19911;-79
2022/01/23 09:42:19;;;;;;;;;;;7.10;99.90;;;;;;5133391;27;20529;-78
2022/01/23 09:44:46;;;;;;;;;;;7.10;99.90;;;;;;5133888;27;20276;-79
2022/01/23 09:47:13;;;;;;;;;;;7.10;99.90;;;;;;5132876;27;19923;-79
2022/01/23 09:49:39;;;;;;;;;;;7.20;99.90;;;;;;5133449;27;19927;-79
2022/01/23 09:52:05;;;;;;;;;;;7.20;99.90;;;;;;5133003;27;19920;-80
2022/01/23 09:54:33;;;;;;;;;;;7.10;99.90;;;;;;5133178;27;20456;-78
2022/01/23 09:57:04;;;;;;;;;;;7.20;99.90;;;;;;5132963;27;19930;-76
2022/01/23 09:59:30;;;;;;;;;;;7.20;99.90;;;;;;5133684;27;19912;-78
2022/01/23 10:01:56;;;;;;;;;;;7.30;99.90;;;;;;5132875;27;19968;-78
2022/01/23 10:04:23;;;;;;;;;;;7.30;99.90;;;;;;5132245;27;19912;-78
2022/01/23 10:06:48;;;;;;;;;;;7.30;99.90;;;;;;5133470;27;19911;-77
2022/01/23 10:09:14;;;;;;;;;;;7.30;99.90;;;;;;5132396;27;19911;-77
2022/01/23 10:11:42;;;;;;;;;;;7.30;99.90;;;;;;5132886;27;19918;-79
2022/01/23 10:14:08;;;;;;;;;;;7.20;99.90;;;;;;5114178;28;19923;-78
2022/01/23 10:16:34;;;;;;;;;;;7.20;99.90;;;;;;5133474;28;19907;-80
2022/01/23 10:19:01;;;;;;;;;;;7.30;99.90;;;;;;5133196;28;20268;-74
2022/01/23 10:21:28;;;;;;;;;;;7.30;99.90;;;;;;5133038;28;19915;-78
2022/01/23 10:23:54;;;;;;;;;;;7.40;99.90;;;;;;5115255;28;19908;-77
2022/01/23 10:26:39;;;;;;;;;;;7.30;99.90;;;;;;5139148;28;20610;-78
2022/01/23 10:29:15;;;;;;;;;;;7.40;99.90;;;;;;5132515;28;19960;-77
2022/01/23 10:31:59;;;;;;;;;;;7.40;99.90;;;;;;5132972;28;19918;-79
2022/01/23 10:34:44;;;;;;;;;;;7.40;99.90;;;;;;5132667;27;19927;-77
2022/01/23 10:37:10;;;;;;;;;;;7.40;99.90;;;;;;5135863;27;19911;-78
2022/01/23 10:39:45;;;;;;;;;;;7.40;99.90;;;;;;5136859;27;19919;-78
2022/01/23 10:48:13;;;;;;;;;;;7.50;99.90;;;;;;5135160;27;20339;-79
2022/01/23 10:50:37;;;;;;;;;;;7.50;99.90;;;;;;5133561;27;20271;-77
2022/01/23 10:53:03;;;;;;;;;;;7.50;99.90;;;;;;5135805;27;19919;-77
2022/01/23 10:55:30;;;;;;;;;;;7.50;99.90;;;;;;5135812;27;20403;-77
2022/01/23 10:57:59;;;;;;;;;;;7.50;99.90;;;;;;5136036;27;20321;-77
2022/01/23 11:00:32;;;;;;;;;;;7.50;99.90;;;;;;5135959;27;20097;-77
2022/01/23 11:02:59;;;;;;;;;;;7.50;99.90;;;;;;5136888;27;20083;-78
2022/01/23 11:05:35;;;;;;;;;;;7.50;99.90;;;;;;5136002;27;19911;-77
2022/01/23 11:08:01;;;;;;;;;;;7.50;99.90;;;;;;5136596;27;19918;-78
2022/01/23 11:10:27;;;;;;;;;;;7.50;99.90;;;;;;5135888;27;19919;-78
2022/01/23 11:18:12;;;;;;;;;;;7.60;99.90;;;;;;5136010;27;19914;-76
2022/01/23 11:20:39;;;;;;;;;;;7.70;99.90;;;;;;5136504;27;19907;-77
2022/01/23 11:23:11;;;;;;;;;;;7.70;99.90;;;;;;5135982;27;19918;-76
2022/01/23 11:25:57;;;;;;;;;;;7.80;99.90;;;;;;5136355;27;19998;-77
2022/01/23 11:28:31;;;;;;;;;;;7.80;99.90;;;;;;5117568;27;19912;-77
2022/01/23 11:30:57;;;;;;;;;;;7.90;99.90;;;;;;5136285;27;19934;-77
2022/01/23 11:33:23;;;;;;;;;;;7.90;99.90;;;;;;5134778;27;19912;-78
2022/01/23 11:35:48;;;;;;;;;;;7.90;99.90;;;;;;5135699;27;19915;-77
2022/01/23 11:38:17;;;;;;;;;;;7.90;99.90;;;;;;5135191;27;19914;-77
2022/01/23 11:53:58;;;;;;;;;;;8.00;99.90;;;;;;5135976;27;20381;-77
2022/01/23 11:56:23;;;;;;;;;;;8.00;99.90;;;;;;5134838;27;19907;-77
2022/01/23 11:58:51;;;;;;;;;;;8.00;99.90;;;;;;5135509;27;19918;-78
2022/01/23 12:01:18;;;;;;;;;;;8.00;99.90;;;;;;5134652;27;20383;-78
2022/01/23 12:04:02;;;;;;;;;;;8.00;99.90;;;;;;5135629;27;19907;-77
2022/01/23 12:06:28;;;;;;;;;;;8.00;99.90;;;;;;5116428;27;20450;-77
2022/01/23 12:09:02;;;;;;;;;;;8.00;99.90;;;;;;5135759;27;19914;-77
2022/01/23 12:11:38;;;;;;;;;;;8.10;99.90;;;;;;5134833;27;20378;-77
2022/01/23 12:16:58;;;;;;;;;;;8.00;99.90;;;;;;5092831;27;19919;-77
2022/01/23 12:19:24;;;;;;;;;;;8.00;99.90;;;;;;5134628;27;19907;-77
2022/01/23 12:21:52;;;;;;;;;;;8.00;99.90;;;;;;5135265;27;20314;-77
2022/01/23 12:24:19;;;;;;;;;;;8.00;99.90;;;;;;5134586;27;20344;-77
2022/01/23 12:26:45;;;;;;;;;;;8.00;99.90;;;;;;5135377;27;19951;-78
2022/01/23 12:29:11;;;;;;;;;;;8.00;99.90;;;;;;5134582;27;19908;-76
2022/01/23 12:31:37;;;;;;;;;;;8.10;99.90;;;;;;5135129;27;19911;-76
2022/01/23 12:34:03;;;;;;;;;;;8.10;99.90;;;;;;5134734;27;19956;-76
2022/01/23 12:36:33;;;;;;;;;;;8.10;99.90;;;;;;5133904;27;19911;-77
2022/01/23 12:39:07;;;;;;;;;;;8.10;99.90;;;;;;5135198;27;19919;-76
2022/01/23 12:41:40;;;;;;;;;;;8.10;99.90;;;;;;5134196;27;19918;-76
2022/01/23 12:44:07;;;;;;;;;;;8.10;99.90;;;;;;5134951;27;19907;-78
2022/01/23 12:46:34;;;;;;;;;;;8.10;99.90;;;;;;5115656;27;19960;-78
2022/01/23 12:49:15;;;;;;;;;;;8.10;99.90;;;;;;5134753;27;19961;-76
2022/01/23 12:51:42;;;;;;;;;;;8.10;99.90;;;;;;5134709;27;19911;-77
2022/01/23 12:54:07;;;;;;;;;;;8.20;99.90;;;;;;5134573;27;19916;-78
2022/01/23 12:56:40;;;;;;;;;;;8.20;99.90;;;;;;5134278;27;20367;-77
2022/01/23 12:59:09;;;;;;;;;;;8.20;99.90;;;;;;5134572;27;19911;-77
2022/01/23 13:01:37;;;;;;;;;;;8.20;99.90;;;;;;5133904;27;19911;-77
2022/01/23 13:04:04;;;;;;;;;;;8.20;99.90;;;;;;5134136;27;19908;-78
2022/01/23 13:06:30;;;;;;;;;;;8.30;99.90;;;;;;5133598;27;19908;-76
2022/01/23 13:09:18;;;;;;;;;;;8.30;99.90;;;;;;5134455;27;19907;-76
2022/01/23 13:12:31;;;;;;;;;;;8.30;99.90;;;;;;5133805;27;19956;-77
2022/01/23 13:17:46;;;;;;;;;;;8.30;99.90;;;;;;5133417;27;20360;-77
2022/01/23 13:31:40;;;;;;;;;;;8.40;99.90;;;;;;5133107;27;19934;-76
2022/01/23 13:34:25;;;;;;;;;;;8.40;99.90;;;;;;5133789;27;19954;-76
2022/01/23 13:37:01;;;;;;;;;;;8.30;99.90;;;;;;5133598;27;19914;-76
2022/01/23 13:39:49;;;;;;;;;;;8.30;99.90;;;;;;5132757;27;19939;-77
2022/01/23 13:53:28;;;;;;;;;;;8.40;99.90;;;;;;5122168;27;20062;-76
2022/01/23 13:58:40;;;;;;;;;;;8.40;99.90;;;;;;5132578;27;19930;-75
2022/01/23 14:01:52;;;;;;;;;;;8.40;99.90;;;;;;5133553;27;19915;-76
2022/01/23 14:03:56;;;;;;;;;;;8.40;99.90;;;;;;5124533;27;19908;-76
2022/01/23 14:06:22;;;;;;;;;;;8.50;99.90;;;;;;5132454;27;19913;-76
2022/01/23 14:09:03;;;;;;;;;;;8.50;99.90;;;;;;5132597;27;19907;-76
2022/01/23 14:11:28;;;;;;;;;;;8.40;99.90;;;;;;5131957;27;20388;-76
2022/01/23 14:13:54;;;;;;;;;;;8.40;99.90;;;;;;5114573;28;19973;-76
2022/01/23 14:16:26;;;;;;;;;;;8.40;99.90;;;;;;5132594;28;20372;-76
2022/01/23 14:18:52;;;;;;;;;;;8.40;99.90;;;;;;5132882;28;19918;-76
2022/01/23 14:21:19;;;;;;;;;;;8.40;99.90;;;;;;5132658;28;19911;-76
2022/01/23 14:23:54;;;;;;;;;;;8.40;99.90;;;;;;5132732;28;19908;-77
2022/01/23 14:26:22;;;;;;;;;;;8.40;99.90;;;;;;5132254;28;20404;-76
2022/01/23 14:28:50;;;;;;;;;;;8.40;99.90;;;;;;5132789;28;20339;-76
2022/01/23 14:31:20;;;;;;;;;;;8.40;99.90;;;;;;5132593;28;19938;-76
2022/01/23 14:33:51;;;;;;;;;;;8.40;99.90;;;;;;5133423;28;19907;-76
2022/01/23 14:36:18;;;;;;;;;;;8.40;99.90;;;;;;5114655;28;20271;-76
2022/01/23 14:38:53;;;;;;;;;;;8.40;99.90;;;;;;5132487;28;19907;-76
2022/01/23 14:41:19;;;;;;;;;;;8.40;99.90;;;;;;5132557;28;19916;-76
2022/01/23 14:43:44;;;;;;;;;;;8.40;99.90;;;;;;5132829;28;20353;-76
2022/01/23 14:46:11;;;;;;;;;;;8.40;99.90;;;;;;5133004;28;20336;-76
2022/01/23 14:48:41;;;;;;;;;;;8.40;99.90;;;;;;5132124;27;19927;-76
2022/01/23 14:51:07;;;;;;;;;;;8.40;99.90;;;;;;5132392;28;19916;-76
2022/01/23 14:53:34;;;;;;;;;;;8.30;99.90;;;;;;5132725;28;19907;-76
2022/01/23 14:56:01;;;;;;;;;;;8.30;99.90;;;;;;5132217;28;20375;-76
2022/01/23 14:58:28;;;;;;;;;;;8.30;99.90;;;;;;5131709;28;19914;-76
2022/01/23 15:00:56;;;;;;;;;;;8.30;99.90;;;;;;5132160;28;19934;-77
2022/01/23 15:03:22;;;;;;;;;;;8.30;99.90;;;;;;5131550;28;19914;-76
2022/01/23 15:05:48;;;;;;;;;;;8.20;99.90;;;;;;5131738;28;20380;-76
2022/01/23 15:08:14;;;;;;;;;;;8.20;99.90;;;;;;5114109;28;19907;-77
2022/01/23 15:10:41;;;;;;;;;;;8.20;99.90;;;;;;5131523;28;20184;-77
2022/01/23 15:13:07;;;;;;;;;;;8.20;99.90;;;;;;5132154;28;19953;-76
2022/01/23 15:15:33;;;;;;;;;;;8.20;99.90;;;;;;5130910;28;19912;-77
2022/01/23 15:17:59;;;;;;;;;;;8.20;99.90;;;;;;5131745;28;19915;-77
2022/01/23 15:20:25;;;;;;;;;;;8.10;99.90;;;;;;5132333;27;19956;-76
2022/01/23 15:22:51;;;;;;;;;;;8.20;99.90;;;;;;5136179;27;19994;-76
2022/01/23 15:25:18;;;;;;;;;;;8.10;99.90;;;;;;5135751;27;19913;-76
2022/01/23 15:27:44;;;;;;;;;;;8.10;99.90;;;;;;5135478;27;19918;-76
2022/01/23 15:30:11;;;;;;;;;;;8.10;99.90;;;;;;5135655;27;19912;-76
2022/01/23 15:32:37;;;;;;;;;;;8.10;99.90;;;;;;5134611;27;19908;-76
2022/01/23 15:35:03;;;;;;;;;;;8.10;99.90;;;;;;5135796;27;20371;-76
2022/01/23 15:37:29;;;;;;;;;;;8.10;99.90;;;;;;5134416;27;20336;-75
2022/01/23 15:39:54;;;;;;;;;;;8.10;99.90;;;;;;5117231;27;20002;-76
2022/01/23 15:42:20;;;;;;;;;;;8.10;99.90;;;;;;5135355;27;20387;-75
2022/01/23 15:44:46;;;;;;;;;;;8.10;99.90;;;;;;5135235;27;19912;-77
2022/01/23 15:47:12;;;;;;;;;;;8.10;99.90;;;;;;5135321;27;19912;-76
2022/01/23 15:49:37;;;;;;;;;;;8.00;99.90;;;;;;5134208;27;20333;-76
2022/01/23 15:52:03;;;;;;;;;;;8.10;99.90;;;;;;5135068;27;19955;-76
2022/01/23 15:54:29;;;;;;;;;;;8.00;99.90;;;;;;5134569;27;19911;-76
2022/01/23 15:56:56;;;;;;;;;;;8.00;99.90;;;;;;5135194;27;19929;-77
2022/01/23 15:59:22;;;;;;;;;;;8.00;99.90;;;;;;5134805;27;19907;-76
2022/01/23 16:01:49;;;;;;;;;;;8.00;99.90;;;;;;5134982;27;19994;-76
2022/01/23 16:04:16;;;;;;;;;;;8.00;99.90;;;;;;5134910;27;19914;-77
2022/01/23 16:06:42;;;;;;;;;;;8.00;99.90;;;;;;5134013;27;20343;-77
2022/01/23 16:09:08;;;;;;;;;;;8.00;99.90;;;;;;5135011;27;19912;-78
2022/01/23 16:11:33;;;;;;;;;;;8.00;99.90;;;;;;5133637;27;19915;-76
2022/01/23 16:13:59;;;;;;;;;;;7.90;99.90;;;;;;5134329;27;20283;-77
2022/01/23 16:16:25;;;;;;;;;;;8.00;99.90;;;;;;5133787;27;19998;-77
2022/01/23 16:18:51;;;;;;;;;;;7.90;99.90;;;;;;5134593;27;20317;-78
2022/01/23 16:21:17;;;;;;;;;;;7.90;99.90;;;;;;5131972;27;19915;-77
2022/01/23 16:23:43;;;;;;;;;;;8.00;99.90;;;;;;5133974;27;19904;-76
2022/01/23 16:26:09;;;;;;;;;;;7.90;99.90;;;;;;5134637;27;19914;-77
2022/01/23 16:28:35;;;;;;;;;;;7.90;99.90;;;;;;5133852;27;19908;-76
2022/01/23 16:31:00;;;;;;;;;;;7.90;99.90;;;;;;5134761;27;20294;-76
2022/01/23 16:33:27;;;;;;;;;;;7.90;99.90;;;;;;5132952;27;19907;-77
2022/01/23 16:35:53;;;;;;;;;;;7.90;99.90;;;;;;5134931;27;19929;-76
2022/01/23 16:38:19;;;;;;;;;;;7.90;99.90;;;;;;5134258;27;19912;-76
2022/01/23 16:40:45;;;;;;;;;;;7.90;99.90;;;;;;5133634;27;19918;-77
2022/01/23 16:43:13;;;;;;;;;;;7.90;99.90;;;;;;5134331;27;20280;-76
2022/01/23 16:45:38;;;;;;;;;;;7.90;99.90;;;;;;5133761;27;19911;-76
2022/01/23 16:48:04;;;;;;;;;;;7.90;99.90;;;;;;5133769;27;20359;-77
2022/01/23 16:50:30;;;;;;;;;;;7.90;99.90;;;;;;5133165;27;19919;-77
2022/01/23 16:52:55;;;;;;;;;;;7.80;99.90;;;;;;5133737;27;19908;-78
2022/01/23 16:55:21;;;;;;;;;;;7.80;99.90;;;;;;5133612;27;20292;-77
2022/01/23 16:57:47;;;;;;;;;;;7.90;99.90;;;;;;5136129;27;19911;-76
2022/01/23 17:00:13;;;;;;;;;;;7.90;99.90;;;;;;5117342;27;19911;-76
2022/01/23 17:02:38;;;;;;;;;;;7.80;99.90;;;;;;5132980;27;19915;-77
2022/01/23 17:05:04;;;;;;;;;;;7.90;99.90;;;;;;5134036;27;19956;-77
2022/01/23 17:07:30;;;;;;;;;;;7.90;99.90;;;;;;5133211;27;19907;-77
2022/01/23 17:09:56;;;;;;;;;;;7.90;99.90;;;;;;5133961;27;20260;-77
2022/01/23 17:12:21;;;;;;;;;;;7.80;99.90;;;;;;5114974;27;19915;-76
2022/01/23 17:14:47;;;;;;;;;;;7.90;99.90;;;;;;5132495;27;19911;-77
2022/01/23 17:17:12;;;;;;;;;;;7.80;99.90;;;;;;5133193;27;19943;-75
2022/01/23 17:19:38;;;;;;;;;;;7.90;99.90;;;;;;5132571;27;20374;-77
2022/01/23 17:22:03;;;;;;;;;;;7.90;99.90;;;;;;5133277;27;19908;-76
2022/01/23 17:24:29;;;;;;;;;;;7.80;99.90;;;;;;5132709;27;19908;-76
2022/01/23 17:26:55;;;;;;;;;;;7.90;99.90;;;;;;5133436;27;19908;-76
2022/01/23 17:29:20;;;;;;;;;;;7.90;99.90;;;;;;5133153;27;19908;-77
2022/01/23 17:31:48;;;;;;;;;;;7.80;99.90;;;;;;5113840;27;19916;-75
2022/01/23 17:34:14;;;;;;;;;;;7.80;99.90;;;;;;5132802;27;19908;-77
2022/01/23 17:36:40;;;;;;;;;;;7.80;99.90;;;;;;5132637;27;20245;-76
2022/01/23 17:39:05;;;;;;;;;;;7.80;99.90;;;;;;5133480;27;19914;-77
2022/01/23 17:41:31;;;;;;;;;;;7.80;99.90;;;;;;5114096;27;19927;-77
2022/01/23 17:43:56;;;;;;;;;;;7.80;99.90;;;;;;5131909;27;19907;-77
2022/01/23 17:46:22;;;;;;;;;;;7.80;99.90;;;;;;5114894;27;20341;-75
2022/01/23 17:49:03;;;;;;;;;;;7.80;99.90;;;;;;5132169;27;19945;-77
2022/01/23 17:51:30;;;;;;;;;;;7.90;99.90;;;;;;5132055;27;19959;-76
2022/01/23 17:53:55;;;;;;;;;;;7.80;99.90;;;;;;5132876;27;19908;-75
2022/01/23 17:56:21;;;;;;;;;;;7.90;99.90;;;;;;5133185;27;19952;-77
2022/01/23 17:58:47;;;;;;;;;;;7.90;99.90;;;;;;5131847;27;19903;-76
2022/01/23 18:01:13;;;;;;;;;;;7.90;99.90;;;;;;5132932;27;19908;-77
2022/01/23 18:03:40;;;;;;;;;;;7.90;99.90;;;;;;5132075;27;19907;-76
2022/01/23 18:06:10;;;;;;;;;;;7.90;99.90;;;;;;5132914;27;20311;-76